createdAt,value
2022-12-02T00:04:43.915Z,-2.00
2022-12-02T00:09:46.911Z,-2.05
2022-12-02T00:15:00.160Z,-2.11
2022-12-02T00:20:02.878Z,-2.11
2022-12-02T00:25:06.053Z,-2.07
2022-12-02T00:30:09.268Z,-2.07
2022-12-02T00:35:12.150Z,-2.07
2022-12-02T00:40:15.165Z,-2.11
2022-12-02T00:45:36.834Z,-2.14
2022-12-02T00:50:39.595Z,-2.07
2022-12-02T00:55:42.314Z,-2.04
2022-12-02T01:00:45.098Z,-2.07
2022-12-02T01:05:47.819Z,-2.14
2022-12-02T01:10:50.610Z,-2.14
2022-12-02T01:15:53.767Z,-2.09
2022-12-02T01:20:56.431Z,-2.13
2022-12-02T01:25:59.119Z,-2.17
2022-12-02T01:31:01.891Z,-2.20
2022-12-02T01:36:04.696Z,-2.24
2022-12-02T01:41:08.401Z,-2.25
2022-12-02T01:46:12.068Z,-2.24
2022-12-02T01:51:14.948Z,-2.27
2022-12-02T01:56:17.739Z,-2.32
2022-12-02T02:01:30.120Z,-2.40
2022-12-02T02:06:36.802Z,-2.45
2022-12-02T02:11:41.539Z,-2.42
2022-12-02T02:16:44.358Z,-2.38
2022-12-02T02:21:52.007Z,-2.37
2022-12-02T02:26:54.814Z,-2.37
2022-12-02T02:31:58.274Z,-2.40
2022-12-02T02:37:01.223Z,-2.40
2022-12-02T02:42:04.090Z,-2.37
2022-12-02T02:47:07.167Z,-2.35
2022-12-02T02:52:10.046Z,-2.38
2022-12-02T02:57:12.809Z,-2.45
2022-12-02T03:02:15.679Z,-2.50
2022-12-02T03:07:19.130Z,-2.53
2022-12-02T03:12:22.372Z,-2.55
2022-12-02T03:17:25.201Z,-2.51
2022-12-02T03:22:28.168Z,-2.51
2022-12-02T03:27:31.197Z,-2.50
2022-12-02T03:32:34.998Z,-2.53
2022-12-02T03:37:37.819Z,-2.58
2022-12-02T03:42:40.982Z,-2.63
2022-12-02T03:47:43.988Z,-2.68
2022-12-02T03:52:46.772Z,-2.69
2022-12-02T03:57:49.504Z,-2.66
2022-12-02T04:02:52.234Z,-2.63
2022-12-02T04:07:55.115Z,-2.63
2022-12-02T04:12:57.883Z,-2.66
2022-12-02T04:18:00.650Z,-2.70
2022-12-02T04:23:03.497Z,-2.74
2022-12-02T04:28:06.623Z,-2.75
2022-12-02T04:33:09.342Z,-2.77
2022-12-02T04:38:12.717Z,-2.80
2022-12-02T04:43:15.597Z,-2.81
2022-12-02T04:48:18.320Z,-2.83
2022-12-02T04:53:21.052Z,-2.86
2022-12-02T04:58:23.810Z,-2.83
2022-12-02T05:03:26.741Z,-2.78
2022-12-02T05:08:29.686Z,-2.78
2022-12-02T05:13:32.609Z,-2.85
2022-12-02T05:18:35.368Z,-2.87
2022-12-02T05:23:38.115Z,-2.86
2022-12-02T05:28:40.855Z,-2.86
2022-12-02T05:33:43.594Z,-2.91
2022-12-02T05:38:46.297Z,-2.92
2022-12-02T05:43:48.996Z,-2.93
2022-12-02T05:48:51.784Z,-2.96
2022-12-02T05:53:54.659Z,-2.96
2022-12-02T05:59:05.676Z,-2.93
2022-12-02T06:04:22.349Z,-2.93
2022-12-02T06:09:33.567Z,-2.96
2022-12-02T06:14:38.133Z,-2.97
2022-12-02T06:19:45.812Z,-2.94
2022-12-02T06:24:49.355Z,-2.94
2022-12-02T06:30:14.540Z,-2.95
2022-12-02T06:35:31.189Z,-2.95
2022-12-02T06:40:36.773Z,-2.92
2022-12-02T06:45:40.163Z,-2.85
2022-12-02T06:50:46.244Z,-2.81
2022-12-02T06:55:50.761Z,-2.78
2022-12-02T07:00:54.517Z,-2.76
2022-12-02T07:06:28.527Z,-2.73
2022-12-02T07:11:51.774Z,-2.67
2022-12-02T07:17:18.012Z,-2.67
2022-12-02T07:22:24.103Z,-2.67
2022-12-02T07:27:33.958Z,-2.70
2022-12-02T07:32:43.298Z,-2.68
2022-12-02T07:37:46.738Z,-2.67
2022-12-02T07:42:49.864Z,-2.72
2022-12-02T07:47:55.091Z,-2.74
2022-12-02T07:53:00.808Z,-2.73
2022-12-02T07:58:03.641Z,-2.64
2022-12-02T08:03:06.523Z,-2.53
2022-12-02T08:08:09.283Z,-2.54
2022-12-02T08:13:12.059Z,-2.57
2022-12-02T08:18:15.095Z,-2.58
2022-12-02T08:23:18.359Z,-2.58
2022-12-02T08:28:21.243Z,-2.63
2022-12-02T08:33:24.006Z,-2.64
2022-12-02T08:38:26.840Z,-2.60
2022-12-02T08:43:29.639Z,-2.58
2022-12-02T08:48:32.459Z,-2.49
2022-12-02T08:53:35.340Z,-2.42
2022-12-02T08:58:53.652Z,-2.41
2022-12-02T09:03:56.771Z,-2.43
2022-12-02T09:09:01.284Z,-2.42
2022-12-02T09:14:04.360Z,-2.41
2022-12-02T09:19:07.109Z,-2.44
2022-12-02T09:24:10.372Z,-2.45
2022-12-02T09:29:13.012Z,-2.43
2022-12-02T09:34:15.944Z,-2.39
2022-12-02T09:39:21.427Z,-2.36
2022-12-02T09:44:24.612Z,-2.38
2022-12-02T09:49:27.554Z,-2.40
2022-12-02T09:54:30.701Z,-2.36
2022-12-02T09:59:33.869Z,-2.33
2022-12-02T10:04:36.845Z,-2.35
2022-12-02T10:09:40.734Z,-2.35
2022-12-02T10:14:48.954Z,-2.25
2022-12-02T10:19:52.568Z,-2.17
2022-12-02T10:24:55.415Z,-2.15
2022-12-02T10:30:20.341Z,-2.17
2022-12-02T10:35:23.061Z,-2.17
2022-12-02T10:40:25.999Z,-2.14
2022-12-02T10:45:28.764Z,-2.12
2022-12-02T10:50:31.635Z,-2.09
2022-12-02T10:55:34.823Z,-2.09
2022-12-02T11:00:44.031Z,-2.22
2022-12-02T11:05:48.054Z,-2.26
2022-12-02T11:11:05.350Z,-2.29
2022-12-02T11:16:26.789Z,-2.33
2022-12-02T11:21:29.663Z,-2.37
2022-12-02T11:27:01.209Z,-2.39
2022-12-02T11:32:21.689Z,-2.40
2022-12-02T11:37:29.349Z,-2.43
2022-12-02T11:42:36.637Z,-2.45
2022-12-02T11:47:40.961Z,-2.47
2022-12-02T11:52:53.125Z,-2.49
2022-12-02T11:57:58.259Z,-2.42
2022-12-02T12:03:27.194Z,-2.38
2022-12-02T12:08:30.079Z,-2.38
2022-12-02T12:13:37.325Z,-2.39
2022-12-02T12:18:49.576Z,-2.38
2022-12-02T12:23:52.288Z,-2.32
2022-12-02T12:28:55.320Z,-2.32
2022-12-02T12:33:58.259Z,-2.35
2022-12-02T12:39:04.046Z,-2.40
2022-12-02T12:44:07.242Z,-2.42
2022-12-02T12:49:14.657Z,-2.34
2022-12-02T12:54:18.881Z,-2.29
2022-12-02T12:59:22.052Z,-2.38
2022-12-02T13:04:24.843Z,-2.48
2022-12-02T13:09:27.936Z,-2.51
2022-12-02T13:14:30.744Z,-2.61
2022-12-02T13:19:33.771Z,-2.75
2022-12-02T13:24:42.634Z,-2.85
2022-12-02T13:29:45.829Z,-2.89
2022-12-02T13:34:48.565Z,-2.94
2022-12-02T13:39:51.494Z,-3.01
2022-12-02T13:44:54.573Z,-3.14
2022-12-02T13:49:57.400Z,-3.14
2022-12-02T13:55:00.223Z,-3.07
2022-12-02T14:00:03.686Z,-3.10
2022-12-02T14:05:08.212Z,-3.14
2022-12-02T14:10:11.693Z,-3.22
2022-12-02T14:15:14.421Z,-3.26
2022-12-02T14:20:17.391Z,-3.29
2022-12-02T14:25:20.158Z,-3.33
2022-12-02T14:30:22.966Z,-3.36
2022-12-02T14:35:26.046Z,-3.39
2022-12-02T14:40:28.752Z,-3.38
2022-12-02T14:45:31.500Z,-3.43
2022-12-02T14:50:34.346Z,-3.46
2022-12-02T14:55:38.723Z,-3.49
2022-12-02T15:00:41.443Z,-3.53
2022-12-02T15:05:44.183Z,-3.55
2022-12-02T15:10:48.553Z,-3.50
2022-12-02T15:15:57.033Z,-3.49
2022-12-02T15:21:02.971Z,-3.50
2022-12-02T15:26:06.748Z,-3.53
2022-12-02T15:31:09.517Z,-3.52
2022-12-02T15:36:12.665Z,-3.48
2022-12-02T15:41:15.443Z,-3.47
2022-12-02T15:46:18.298Z,-3.51
2022-12-02T15:51:21.300Z,-3.55
2022-12-02T15:56:24.127Z,-3.55
2022-12-02T16:01:27.801Z,-3.56
2022-12-02T16:06:30.811Z,-3.59
2022-12-02T16:11:34.450Z,-3.54
2022-12-02T16:16:42.503Z,-3.52
2022-12-02T16:21:46.089Z,-3.55
2022-12-02T16:26:55.024Z,-3.58
2022-12-02T16:31:58.350Z,-3.58
2022-12-02T16:37:03.729Z,-3.59
2022-12-02T16:42:06.472Z,-3.54
2022-12-02T16:47:10.552Z,-3.55
2022-12-02T16:52:17.471Z,-3.60
2022-12-02T16:57:31.759Z,-3.59
2022-12-02T17:02:36.193Z,-3.61
2022-12-02T17:07:39.302Z,-3.64
2022-12-02T17:12:42.155Z,-3.68
2022-12-02T17:17:47.177Z,-3.69
2022-12-02T17:22:56.214Z,-3.73
2022-12-02T17:27:58.931Z,-3.74
2022-12-02T17:33:02.111Z,-3.73
2022-12-02T17:38:04.808Z,-3.72
2022-12-02T17:43:07.581Z,-3.72
2022-12-02T17:48:10.312Z,-3.75
2022-12-02T17:53:13.052Z,-3.76
2022-12-02T17:58:27.403Z,-3.78
2022-12-02T18:03:43.030Z,-3.82
2022-12-02T18:08:56.526Z,-3.83
2022-12-02T18:14:28.164Z,-3.87
2022-12-02T18:20:00.686Z,-3.83
2022-12-02T18:26:21.796Z,-3.82
2022-12-02T18:31:52.769Z,-3.87
2022-12-02T18:38:37.685Z,-3.88
2022-12-02T18:43:40.453Z,-3.83
2022-12-02T18:48:43.435Z,-3.83
2022-12-02T18:53:46.179Z,-3.90
2022-12-02T18:58:49.263Z,-4.01
2022-12-02T19:03:52.022Z,-4.08
2022-12-02T19:08:54.806Z,-4.09
2022-12-02T19:13:57.563Z,-4.11
2022-12-02T19:19:00.347Z,-4.13
2022-12-02T19:24:03.563Z,-4.19
2022-12-02T19:29:06.567Z,-4.24
2022-12-02T19:34:09.553Z,-4.25
2022-12-02T19:39:14.451Z,-4.30
2022-12-02T19:44:17.448Z,-4.31
2022-12-02T19:49:20.335Z,-4.33
2022-12-02T19:54:23.461Z,-4.35
2022-12-02T19:59:26.531Z,-4.36
2022-12-02T20:04:44.707Z,-4.38
2022-12-02T20:09:47.553Z,-4.31
2022-12-02T20:14:50.609Z,-4.28
2022-12-02T20:19:53.607Z,-4.30
2022-12-02T20:24:56.623Z,-4.35
2022-12-02T20:29:59.559Z,-4.37
2022-12-02T20:35:02.445Z,-4.36
2022-12-02T20:40:06.411Z,-4.37
2022-12-02T20:45:10.303Z,-4.40
2022-12-02T20:50:13.139Z,-4.42
2022-12-02T20:55:16.257Z,-4.48
2022-12-02T21:00:19.562Z,-4.46
2022-12-02T21:05:22.344Z,-4.42
2022-12-02T21:10:25.099Z,-4.43
2022-12-02T21:15:27.920Z,-4.47
2022-12-02T21:20:30.810Z,-4.55
2022-12-02T21:25:33.776Z,-4.63
2022-12-02T21:30:38.163Z,-4.62
2022-12-02T21:35:41.517Z,-4.61
2022-12-02T21:40:44.825Z,-4.62
2022-12-02T21:45:47.662Z,-4.68
2022-12-02T21:50:50.584Z,-4.73
2022-12-02T21:55:53.453Z,-4.73
2022-12-02T22:01:15.334Z,-4.68
2022-12-02T22:06:18.703Z,-4.63
2022-12-02T22:11:22.655Z,-4.61
2022-12-02T22:16:26.084Z,-4.59
2022-12-02T22:21:29.450Z,-4.62
2022-12-02T22:26:32.209Z,-4.63
2022-12-02T22:31:35.003Z,-4.59
2022-12-02T22:36:37.940Z,-4.52
2022-12-02T22:41:40.695Z,-4.51
2022-12-02T22:46:43.393Z,-4.57
2022-12-02T22:51:46.386Z,-4.62
2022-12-02T22:56:49.100Z,-4.67
2022-12-02T23:01:51.953Z,-4.65
2022-12-02T23:06:54.923Z,-4.60
2022-12-02T23:11:57.680Z,-4.53
2022-12-02T23:17:00.470Z,-4.54
2022-12-02T23:22:03.337Z,-4.56
2022-12-02T23:27:06.088Z,-4.57
2022-12-02T23:32:08.860Z,-4.55
2022-12-02T23:37:11.649Z,-4.49
2022-12-02T23:42:14.392Z,-4.47
2022-12-02T23:47:17.177Z,-4.50
2022-12-02T23:52:20.050Z,-4.53
2022-12-02T23:57:22.795Z,-4.48
